createdAt,value
2023-02-12T00:02:25.815Z,102537.75
2023-02-12T00:04:52.546Z,102541.28
2023-02-12T00:07:19.137Z,102543.31
2023-02-12T00:09:45.704Z,102543.31
2023-02-12T00:12:12.267Z,102546.00
2023-02-12T00:14:38.795Z,102548.69
2023-02-12T00:17:05.341Z,102543.31
2023-02-12T00:19:32.073Z,102547.00
2023-02-12T00:21:58.664Z,102546.66
2023-02-12T00:24:25.903Z,102551.84
2023-02-12T00:26:52.543Z,102541.63
2023-02-12T00:29:19.028Z,102537.06
2023-02-12T00:31:45.627Z,102544.31
2023-02-12T00:34:12.381Z,102551.50
2023-02-12T00:36:39.004Z,102548.47
2023-02-12T00:39:05.645Z,102549.50
2023-02-12T00:41:32.176Z,102556.38
2023-02-12T00:43:59.064Z,102550.34
2023-02-12T00:46:25.749Z,102555.22
2023-02-12T00:48:52.195Z,102554.88
2023-02-12T00:51:19.108Z,102561.25
2023-02-12T00:53:45.760Z,102556.22
2023-02-12T00:56:12.290Z,102556.41
2023-02-12T00:58:38.910Z,102560.91
2023-02-12T01:01:05.704Z,102560.09
2023-02-12T01:03:32.502Z,102568.31
2023-02-12T01:05:59.061Z,102566.81
2023-02-12T01:08:25.679Z,102569.66
2023-02-12T01:10:57.900Z,102563.13
2023-02-12T01:13:25.725Z,102564.63
2023-02-12T01:16:03.026Z,102563.13
2023-02-12T01:18:29.502Z,102565.13
2023-02-12T01:20:56.041Z,102572.53
2023-02-12T01:23:22.577Z,102567.47
2023-02-12T01:25:49.168Z,102571.84
2023-02-12T01:28:15.727Z,102572.84
2023-02-12T01:30:42.314Z,102576.56
2023-02-12T01:33:08.921Z,102568.50
2023-02-12T01:35:37.877Z,102566.47
2023-02-12T01:38:04.402Z,102572.19
2023-02-12T01:40:30.893Z,102575.53
2023-02-12T01:43:01.177Z,102571.50
2023-02-12T01:45:36.681Z,102575.88
2023-02-12T01:48:03.290Z,102572.19
2023-02-12T01:50:29.855Z,102573.69
2023-02-12T01:52:58.540Z,102565.66
2023-02-12T01:55:25.723Z,102570.31
2023-02-12T01:57:52.277Z,102565.81
2023-02-12T02:00:24.602Z,102564.28
2023-02-12T02:02:58.582Z,102567.97
2023-02-12T02:05:38.251Z,102565.13
2023-02-12T02:08:05.109Z,102571.19
2023-02-12T02:10:31.671Z,102580.25
2023-02-12T02:13:17.552Z,102583.59
2023-02-12T02:15:49.361Z,102570.84
2023-02-12T02:18:44.316Z,102574.22
2023-02-12T02:21:42.388Z,102570.50
2023-02-12T02:24:37.204Z,102577.22
2023-02-12T02:27:22.740Z,102581.94
2023-02-12T02:30:32.427Z,102569.84
2023-02-12T02:33:19.651Z,102577.22
2023-02-12T02:36:00.134Z,102574.06
2023-02-12T02:38:41.866Z,102570.19
2023-02-12T02:41:27.786Z,102562.78
2023-02-12T02:43:55.570Z,102571.19
2023-02-12T02:46:32.732Z,102565.13
2023-02-12T02:49:06.706Z,102565.47
2023-02-12T02:52:02.424Z,102563.59
2023-02-12T02:54:40.830Z,102565.13
2023-02-12T02:57:22.036Z,102572.19
2023-02-12T02:59:56.038Z,102577.91
2023-02-12T03:02:32.211Z,102575.06
2023-02-12T03:05:04.602Z,102574.19
2023-02-12T03:07:38.979Z,102575.06
2023-02-12T03:10:20.813Z,102574.53
2023-02-12T03:12:59.114Z,102580.94
2023-02-12T03:16:03.986Z,102575.88
2023-02-12T03:18:36.256Z,102573.88
2023-02-12T03:21:09.946Z,102582.94
2023-02-12T03:23:52.900Z,102582.75
2023-02-12T03:26:28.894Z,102586.97
2023-02-12T03:28:55.467Z,102593.00
2023-02-12T03:31:37.975Z,102587.47
2023-02-12T03:34:15.371Z,102598.41
2023-02-12T03:36:57.055Z,102592.00
2023-02-12T03:39:44.796Z,102592.69
2023-02-12T03:42:32.830Z,102596.38
2023-02-12T03:45:02.744Z,102606.47
2023-02-12T03:47:46.326Z,102602.75
2023-02-12T03:50:18.136Z,102601.09
2023-02-12T03:52:46.460Z,102595.38
2023-02-12T03:55:13.764Z,102601.56
2023-02-12T03:57:45.812Z,102602.09
2023-02-12T04:00:19.493Z,102600.41
2023-02-12T04:02:46.718Z,102601.56
2023-02-12T04:05:22.284Z,102606.47
2023-02-12T04:07:50.450Z,102609.63
2023-02-12T04:10:17.896Z,102609.81
2023-02-12T04:13:26.382Z,102617.22
2023-02-12T04:15:56.058Z,102618.22
2023-02-12T04:18:44.714Z,102632.66
2023-02-12T04:21:21.101Z,102631.31
2023-02-12T04:24:03.432Z,102638.03
2023-02-12T04:26:41.285Z,102636.53
2023-02-12T04:29:10.627Z,102634.00
2023-02-12T04:32:09.439Z,102638.03
2023-02-12T04:34:44.580Z,102642.72
2023-02-12T04:37:25.878Z,102654.81
2023-02-12T04:39:54.091Z,102652.28
2023-02-12T04:42:20.842Z,102649.94
2023-02-12T04:44:47.543Z,102660.22
2023-02-12T04:47:16.397Z,102657.66
2023-02-12T04:49:42.863Z,102655.63
2023-02-12T04:52:09.629Z,102662.84
2023-02-12T04:54:36.153Z,102657.19
2023-02-12T04:57:02.844Z,102661.00
2023-02-12T04:59:29.495Z,102665.00
2023-02-12T05:01:55.997Z,102656.28
2023-02-12T05:04:22.429Z,102657.47
2023-02-12T05:06:48.902Z,102666.69
2023-02-12T05:09:20.605Z,102668.03
2023-02-12T05:11:47.162Z,102663.44
2023-02-12T05:14:13.767Z,102665.13
2023-02-12T05:16:40.304Z,102673.53
2023-02-12T05:19:09.489Z,102665.47
2023-02-12T05:21:37.215Z,102669.31
2023-02-12T05:24:04.236Z,102673.00
2023-02-12T05:26:30.722Z,102668.63
2023-02-12T05:28:57.243Z,102670.31
2023-02-12T05:31:23.787Z,102666.63
2023-02-12T05:33:50.530Z,102664.09
2023-02-12T05:36:18.543Z,102663.72
2023-02-12T05:38:44.917Z,102664.22
2023-02-12T05:41:17.869Z,102661.44
2023-02-12T05:43:46.528Z,102658.88
2023-02-12T05:46:14.284Z,102658.22
2023-02-12T05:48:41.283Z,102668.09
2023-02-12T05:51:10.582Z,102671.81
2023-02-12T05:53:38.300Z,102673.81
2023-02-12T05:56:13.874Z,102678.53
2023-02-12T05:58:42.083Z,102674.78
2023-02-12T06:01:14.612Z,102678.19
2023-02-12T06:03:41.221Z,102685.16
2023-02-12T06:06:07.990Z,102685.44
2023-02-12T06:08:34.595Z,102683.91
2023-02-12T06:11:06.754Z,102672.03
2023-02-12T06:13:33.369Z,102678.06
2023-02-12T06:16:00.051Z,102676.84
2023-02-12T06:18:27.602Z,102668.56
2023-02-12T06:20:57.026Z,102670.16
2023-02-12T06:23:24.440Z,102668.38
2023-02-12T06:25:55.407Z,102677.38
2023-02-12T06:28:22.529Z,102671.16
2023-02-12T06:30:49.206Z,102678.44
2023-02-12T06:33:15.606Z,102669.00
2023-02-12T06:35:42.093Z,102669.34
2023-02-12T06:38:09.327Z,102674.97
2023-02-12T06:40:35.775Z,102678.91
2023-02-12T06:43:02.314Z,102682.66
2023-02-12T06:45:28.792Z,102687.59
2023-02-12T06:47:55.285Z,102686.00
2023-02-12T06:50:21.786Z,102686.69
2023-02-12T06:52:48.334Z,102691.81
2023-02-12T06:55:14.866Z,102696.44
2023-02-12T06:57:41.342Z,102703.13
2023-02-12T07:00:08.612Z,102699.41
2023-02-12T07:02:37.343Z,102705.41
2023-02-12T07:05:05.321Z,102704.53
2023-02-12T07:07:31.734Z,102716.81
2023-02-12T07:09:58.166Z,102712.25
2023-02-12T07:12:24.662Z,102718.44
2023-02-12T07:14:51.103Z,102720.66
2023-02-12T07:17:17.553Z,102718.38
2023-02-12T07:19:44.013Z,102726.03
2023-02-12T07:22:10.478Z,102724.38
2023-02-12T07:24:38.977Z,102727.31
2023-02-12T07:27:05.462Z,102731.22
2023-02-12T07:29:31.970Z,102734.78
2023-02-12T07:31:58.483Z,102741.03
2023-02-12T07:34:24.989Z,102741.25
2023-02-12T07:36:51.452Z,102738.41
2023-02-12T07:39:17.962Z,102740.75
2023-02-12T07:41:44.544Z,102736.91
2023-02-12T07:44:12.648Z,102742.78
2023-02-12T07:46:47.752Z,102743.81
2023-02-12T07:49:17.525Z,102738.63
2023-02-12T07:51:44.136Z,102746.53
2023-02-12T07:54:11.382Z,102740.44
2023-02-12T07:56:39.273Z,102745.47
2023-02-12T07:59:12.291Z,102749.38
2023-02-12T08:01:41.355Z,102744.50
2023-02-12T08:04:13.488Z,102748.88
2023-02-12T08:06:45.448Z,102752.06
2023-02-12T08:09:15.781Z,102758.13
2023-02-12T08:11:43.400Z,102751.41
2023-02-12T08:14:14.994Z,102749.03
2023-02-12T08:16:42.916Z,102756.91
2023-02-12T08:19:17.958Z,102754.41
2023-02-12T08:21:47.426Z,102756.78
2023-02-12T08:24:13.939Z,102753.41
2023-02-12T08:26:40.451Z,102761.31
2023-02-12T08:29:13.480Z,102765.50
2023-02-12T08:31:42.858Z,102756.78
2023-02-12T08:34:21.053Z,102757.78
2023-02-12T08:36:49.680Z,102759.78
2023-02-12T08:39:18.175Z,102767.84
2023-02-12T08:41:45.218Z,102770.72
2023-02-12T08:44:12.827Z,102777.78
2023-02-12T08:46:43.639Z,102770.56
2023-02-12T08:49:16.376Z,102776.63
2023-02-12T08:51:50.788Z,102786.53
2023-02-12T08:54:20.522Z,102779.78
2023-02-12T08:56:47.053Z,102784.69
2023-02-12T08:59:14.771Z,102787.38
2023-02-12T09:01:42.024Z,102786.69
2023-02-12T09:04:21.905Z,102793.78
2023-02-12T09:06:48.827Z,102785.88
2023-02-12T09:09:15.615Z,102789.56
2023-02-12T09:11:42.427Z,102800.50
2023-02-12T09:14:12.760Z,102797.47
2023-02-12T09:16:42.469Z,102799.50
2023-02-12T09:19:11.934Z,102799.63
2023-02-12T09:21:38.552Z,102802.31
2023-02-12T09:24:05.156Z,102795.13
2023-02-12T09:26:31.650Z,102801.16
2023-02-12T09:28:58.268Z,102800.31
2023-02-12T09:31:29.834Z,102802.34
2023-02-12T09:34:04.072Z,102807.06
2023-02-12T09:36:31.682Z,102810.25
2023-02-12T09:38:59.439Z,102814.78
2023-02-12T09:41:46.515Z,102817.66
2023-02-12T09:44:15.654Z,102820.69
2023-02-12T09:47:13.051Z,102816.13
2023-02-12T09:50:04.349Z,102819.16
2023-02-12T09:52:30.963Z,102823.53
2023-02-12T09:54:58.985Z,102820.69
2023-02-12T14:24:36.111Z,102732.44
2023-02-12T14:27:06.685Z,102740.22
2023-02-12T14:29:33.418Z,102735.47
2023-02-12T14:31:59.841Z,102740.25
2023-02-12T14:34:38.607Z,102735.06
2023-02-12T14:40:33.470Z,102734.03
2023-02-12T14:43:02.256Z,102740.47
2023-02-12T14:45:46.529Z,102742.28
2023-02-12T14:48:41.465Z,102737.03
2023-02-12T14:51:17.666Z,102745.44
2023-02-12T14:53:46.810Z,102751.56
2023-02-12T14:56:13.507Z,102744.31
2023-02-12T14:58:39.983Z,102742.47
2023-02-12T15:01:07.035Z,102734.84
2023-02-12T15:03:51.116Z,102746.31
2023-02-12T15:06:35.192Z,102739.06
2023-02-12T15:09:16.767Z,102746.81
2023-02-12T15:11:49.080Z,102746.19
2023-02-12T15:14:22.357Z,102750.53
2023-02-12T15:16:56.125Z,102739.91
2023-02-12T15:19:57.419Z,102744.63
2023-02-12T15:22:33.940Z,102742.94
2023-02-12T15:25:27.293Z,102744.09
2023-02-12T15:28:00.729Z,102745.13
2023-02-12T15:30:32.388Z,102743.28
2023-02-12T15:33:04.120Z,102738.28
2023-02-12T15:35:37.034Z,102745.13
2023-02-12T15:38:07.506Z,102745.00
2023-02-12T15:40:34.608Z,102737.09
2023-02-12T15:43:07.591Z,102739.78
2023-02-12T15:45:36.476Z,102745.34
2023-02-12T15:48:15.880Z,102743.81
2023-02-12T15:51:00.606Z,102736.75
2023-02-12T15:53:30.692Z,102735.75
2023-02-12T15:55:59.226Z,102731.56
2023-02-12T15:58:30.677Z,102732.75
2023-02-12T16:01:04.442Z,102738.63
2023-02-12T16:03:32.459Z,102731.41
2023-02-12T16:06:13.147Z,102735.28
2023-02-12T16:08:45.958Z,102741.38
2023-02-12T16:11:14.062Z,102747.44
2023-02-12T16:13:45.583Z,102746.59
2023-02-12T16:16:12.041Z,102745.59
2023-02-12T16:18:40.216Z,102748.28
2023-02-12T16:21:14.643Z,102754.34
2023-02-12T16:23:51.713Z,102750.66
2023-02-12T16:26:21.067Z,102745.44
2023-02-12T16:28:49.704Z,102758.44
2023-02-12T16:31:18.050Z,102763.16
2023-02-12T16:33:52.758Z,102766.69
2023-02-12T16:36:22.711Z,102773.09
2023-02-12T16:38:56.445Z,102768.88
2023-02-12T16:41:27.001Z,102772.06
2023-02-12T16:44:02.296Z,102785.03
2023-02-12T16:46:34.208Z,102784.03
2023-02-12T16:49:02.212Z,102776.47
2023-02-12T16:51:33.935Z,102774.28
2023-02-12T16:54:02.919Z,102780.34
2023-02-12T16:56:34.213Z,102782.03
2023-02-12T16:59:02.457Z,102791.47
2023-02-12T17:01:36.576Z,102785.56
2023-02-12T17:04:16.358Z,102791.81
2023-02-12T17:06:43.615Z,102791.13
2023-02-12T17:09:10.516Z,102780.81
2023-02-12T17:11:36.984Z,102794.09
2023-02-12T17:14:03.460Z,102796.78
2023-02-12T17:16:31.885Z,102788.06
2023-02-12T17:19:00.187Z,102790.06
2023-02-12T17:21:39.637Z,102792.81
2023-02-12T17:24:10.240Z,102797.13
2023-02-12T17:26:36.731Z,102791.25
2023-02-12T17:29:05.408Z,102800.19
2023-02-12T17:31:36.582Z,102801.88
2023-02-12T17:34:04.384Z,102801.53
2023-02-12T17:36:31.008Z,102808.09
2023-02-12T17:38:57.426Z,102807.22
2023-02-12T17:41:24.578Z,102813.66
2023-02-12T17:43:51.113Z,102818.50
2023-02-12T17:46:21.836Z,102816.66
2023-02-12T17:48:48.390Z,102819.00
2023-02-12T17:51:15.855Z,102820.34
2023-02-12T17:53:43.182Z,102817.00
2023-02-12T17:56:15.237Z,102826.41
2023-02-12T17:58:42.848Z,102828.91
2023-02-12T18:01:12.975Z,102825.41
2023-02-12T18:03:39.898Z,102831.97
2023-02-12T18:06:07.234Z,102819.81
2023-02-12T18:08:34.173Z,102821.84
2023-02-12T18:11:06.092Z,102823.03
2023-02-12T18:13:32.928Z,102817.63
2023-02-12T18:15:59.453Z,102819.63
2023-02-12T18:18:25.932Z,102817.81
2023-02-12T18:20:52.368Z,102817.13
2023-02-12T18:23:18.873Z,102812.06
2023-02-12T18:25:45.322Z,102810.38
2023-02-12T18:28:12.655Z,102817.78
2023-02-12T18:30:42.691Z,102817.28
2023-02-12T18:33:09.924Z,102825.34
2023-02-12T18:35:37.116Z,102815.75
2023-02-12T18:38:03.808Z,102812.22
2023-02-12T18:40:30.325Z,102805.22
2023-02-12T18:42:56.756Z,102809.88
2023-02-12T18:45:23.668Z,102810.72
2023-02-12T18:47:50.129Z,102804.66
2023-02-12T18:50:16.738Z,102804.47
2023-02-12T18:52:43.192Z,102800.97
2023-02-12T18:55:09.779Z,102802.47
2023-02-12T18:57:36.314Z,102797.94
2023-02-12T19:00:04.441Z,102796.09
2023-02-12T19:02:30.996Z,102804.19
2023-02-12T19:04:57.555Z,102800.50
2023-02-12T19:07:24.132Z,102810.22
2023-02-12T19:09:50.857Z,102809.38
2023-02-12T19:12:17.224Z,102816.66
2023-02-12T19:14:43.689Z,102806.53
2023-02-12T19:17:10.149Z,102809.03
2023-02-12T19:19:36.773Z,102802.16
2023-02-12T19:22:03.312Z,102805.88
2023-02-12T19:24:44.503Z,102806.69
2023-02-12T19:27:12.614Z,102815.75
2023-02-12T19:29:39.120Z,102812.06
2023-02-12T19:32:05.735Z,102807.53
2023-02-12T19:34:32.274Z,102818.16
2023-02-12T19:36:58.755Z,102819.97
2023-02-12T19:39:25.319Z,102815.47
2023-02-12T19:41:52.976Z,102817.13
2023-02-12T19:44:21.845Z,102805.53
2023-02-12T19:46:49.146Z,102798.44
2023-02-12T19:49:18.678Z,102809.91
2023-02-12T19:51:45.351Z,102802.16
2023-02-12T19:54:12.932Z,102802.19
2023-02-12T19:56:40.499Z,102813.94
2023-02-12T19:59:07.410Z,102815.47
2023-02-12T20:01:35.396Z,102815.59
2023-02-12T20:04:02.547Z,102816.63
2023-02-12T20:06:35.458Z,102818.16
2023-02-12T20:09:03.543Z,102816.94
2023-02-12T20:11:32.073Z,102816.94
2023-02-12T20:13:59.107Z,102821.66
2023-02-12T20:16:31.303Z,102821.47
2023-02-12T20:19:01.833Z,102824.84
2023-02-12T20:21:28.449Z,102829.72
2023-02-12T20:23:55.630Z,102825.34
2023-02-12T20:26:22.706Z,102823.47
2023-02-12T20:28:50.327Z,102828.88
2023-02-12T20:31:21.204Z,102831.06
2023-02-12T20:33:48.402Z,102835.09
2023-02-12T20:36:15.404Z,102824.34
2023-02-12T20:38:44.682Z,102826.00
2023-02-12T20:41:12.064Z,102826.00
2023-02-12T20:43:38.985Z,102826.00
2023-02-12T20:46:08.024Z,102833.06
2023-02-12T20:48:35.066Z,102831.38
2023-02-12T20:51:16.412Z,102833.09
2023-02-12T20:53:43.888Z,102832.25
2023-02-12T20:56:13.412Z,102826.69
2023-02-12T20:58:44.602Z,102829.72
2023-02-12T21:01:21.173Z,102841.16
2023-02-12T21:03:49.143Z,102829.72
2023-02-12T21:06:15.699Z,102830.03
2023-02-12T21:08:42.431Z,102829.91
2023-02-12T21:11:11.894Z,102830.09
2023-02-12T21:13:42.711Z,102821.81
2023-02-12T21:16:11.994Z,102826.34
2023-02-12T21:18:39.371Z,102827.50
2023-02-12T21:21:10.090Z,102825.81
2023-02-12T21:23:37.223Z,102821.66
2023-02-12T21:26:09.181Z,102828.38
2023-02-12T21:28:36.391Z,102819.94
2023-02-12T21:31:25.029Z,102821.31
2023-02-12T21:33:53.283Z,102822.81
2023-02-12T21:36:25.695Z,102819.25
2023-02-12T21:38:53.179Z,102820.59
2023-02-12T21:41:22.809Z,102814.88
2023-02-12T21:43:51.992Z,102809.00
2023-02-12T21:46:21.095Z,102812.69
2023-02-12T21:48:47.540Z,102816.56
2023-02-12T21:51:19.947Z,102815.91
2023-02-12T21:53:47.752Z,102820.06
2023-02-12T21:56:15.090Z,102810.47
2023-02-12T21:58:41.845Z,102811.34
2023-02-12T22:01:13.266Z,102804.53
2023-02-12T22:03:39.749Z,102810.00
2023-02-12T22:06:08.328Z,102806.50
2023-02-12T22:08:35.636Z,102807.78
2023-02-12T22:11:10.345Z,102799.06
2023-02-12T22:13:37.667Z,102802.59
2023-02-12T22:16:10.494Z,102800.41
2023-02-12T22:18:37.278Z,102800.91
2023-02-12T22:21:05.374Z,102801.91
2023-02-12T22:23:32.460Z,102791.34
2023-02-12T22:26:13.904Z,102794.88
2023-02-12T22:28:42.781Z,102803.63
2023-02-12T22:31:11.394Z,102805.44
2023-02-12T22:33:38.377Z,102802.09
2023-02-12T22:36:06.940Z,102803.75
2023-02-12T22:38:34.711Z,102802.09
2023-02-12T22:41:02.164Z,102802.09
2023-02-12T22:43:30.431Z,102800.41
2023-02-12T22:45:56.963Z,102798.72
2023-02-12T22:48:24.413Z,102797.00
2023-02-12T22:50:51.250Z,102803.44
2023-02-12T22:53:17.690Z,102794.66
2023-02-12T22:55:44.157Z,102804.25
2023-02-12T22:58:11.048Z,102800.75
2023-02-12T23:00:38.212Z,102801.03
2023-02-12T23:03:04.672Z,102807.09
2023-02-12T23:05:31.232Z,102804.41
2023-02-12T23:07:57.715Z,102801.72
2023-02-12T23:10:24.216Z,102797.34
2023-02-12T23:12:50.655Z,102793.84
2023-02-12T23:15:17.243Z,102797.53
2023-02-12T23:17:43.684Z,102788.59
2023-02-12T23:20:10.879Z,102790.63
2023-02-12T23:22:37.354Z,102781.88
2023-02-12T23:25:03.906Z,102785.59
2023-02-12T23:27:30.456Z,102789.25
2023-02-12T23:29:56.979Z,102787.56
2023-02-12T23:32:23.449Z,102783.19
2023-02-12T23:34:49.874Z,102792.25
2023-02-12T23:37:16.347Z,102794.94
2023-02-12T23:39:42.791Z,102790.59
2023-02-12T23:42:09.599Z,102788.09
2023-02-12T23:44:36.538Z,102785.63
2023-02-12T23:47:03.034Z,102781.50
2023-02-12T23:49:29.724Z,102781.00
2023-02-12T23:51:56.078Z,102775.22
2023-02-12T23:54:22.589Z,102775.47
2023-02-12T23:56:49.034Z,102775.81
2023-02-12T23:59:15.493Z,102773.25
